KORF/ORF METAR and TAF weather

Enter ICAO airport designator
Station Type Date Time Source
KORF METAR 2022/01/29 00:51 UTC NOAA

KORF 290051Z 04020G25KT 7SM RA FEW014 OVC023 02/01 A2985 RMK AO2 RAE2356B21 SLP106 P0001 T00220006


Station Type Date Time Source
KORF Decoded METAR 2022/01/29 00:51 UTC NOAA

NORFOLK INTERNATIONAL AIRPORT , VA, United States (KORF) 36-54N 076-12W 14M
Jan 28, 2022 - 07:51 PM EST / 2022.01.29 0051 UTC
Wind: from the NE (040 degrees) at 23 MPH (20 KT) gusting to 29 MPH (25 KT):0
Visibility: 7 mile(s):0
Sky conditions: overcast
Weather: rain
Precipitation last hour: 0.01 inches
Temperature: 36.0 F (2.2 C)
Dew Point: 33.1 F (0.6 C)
Relative Humidity: 89%
Pressure (altimeter): 29.85 in. Hg (1010 hPa)
ob: KORF 290051Z 04020G25KT 7SM RA FEW014 OVC023 02/01 A2985 RMK AO2 RAE2356B21 SLP106 P0001 T00220006
cycle: 1

Station Type Date Time Source
KORF TAF 2022/01/28 18:22 UTC NOAA

TAF KORF 281720Z 2818/2918 02007KT P6SM BKN100
FM290100 02012G18KT 6SM -RA OVC050
FM290300 02013G22KT 2SM RASN OVC015
FM290500 01015G25KT 1 1/2SM -SN OVC006
FM290900 36025G35KT 3/4SM -SN BR OVC005
FM291300 34022G32KT P6SM OVC010

Example: see airport list